createdAt,value
2019-05-07T00:02:25.323Z,8.39
2019-05-07T00:04:54.706Z,8.46
2019-05-07T00:07:23.913Z,8.49
2019-05-07T00:09:53.156Z,8.51
2019-05-07T00:12:23.028Z,8.52
2019-05-07T00:15:00.875Z,8.57
2019-05-07T00:17:23.411Z,8.56
2019-05-07T00:19:52.781Z,8.52
2019-05-07T00:22:22.773Z,8.52
2019-05-07T00:24:52.325Z,8.54
2019-05-07T00:27:22.624Z,8.49
2019-05-07T00:29:52.084Z,8.54
2019-05-07T00:32:22.124Z,8.60
2019-05-07T00:34:55.677Z,8.63
2019-05-07T00:37:32.340Z,8.61
2019-05-07T00:40:19.426Z,8.59
2019-05-07T00:43:05.011Z,8.51
2019-05-07T00:45:35.885Z,8.47
2019-05-07T00:48:05.059Z,8.40
2019-05-07T00:50:35.870Z,8.43
2019-05-07T00:53:05.117Z,8.44
2019-05-07T00:58:42.943Z,8.46
2019-05-07T01:01:13.045Z,8.36
2019-05-07T01:03:42.549Z,8.28
2019-05-07T01:06:12.878Z,8.28
2019-05-07T01:08:43.055Z,8.22
2019-05-07T01:11:13.171Z,8.18
2019-05-07T01:13:43.351Z,8.15
2019-05-07T01:16:13.388Z,8.14
2019-05-07T01:18:42.716Z,8.04
2019-05-07T01:21:13.215Z,8.04
2019-05-07T01:23:42.772Z,8.02
2019-05-07T01:26:12.501Z,7.96
2019-05-07T01:29:02.466Z,7.89
2019-05-07T01:31:33.486Z,7.87
2019-05-07T01:34:16.304Z,7.83
2019-05-07T01:36:45.582Z,7.76
2019-05-07T01:39:14.740Z,7.71
2019-05-07T01:41:44.702Z,7.67
2019-05-07T01:44:14.142Z,7.64
2019-05-07T01:46:43.358Z,7.57
2019-05-07T01:49:12.761Z,7.44
2019-05-07T01:54:33.475Z,7.56
2019-05-07T01:57:03.128Z,7.57
2019-05-07T01:59:32.459Z,7.58
2019-05-07T02:02:05.908Z,7.58
2019-05-07T02:04:39.167Z,7.68
2019-05-07T02:07:12.460Z,7.76
2019-05-07T02:09:49.277Z,7.78
2019-05-07T02:12:59.113Z,7.72
2019-05-07T02:18:01.979Z,7.75
2019-05-07T02:23:02.909Z,7.85
2019-05-07T02:25:33.024Z,7.82
2019-05-07T02:28:02.391Z,7.82
2019-05-07T02:30:34.750Z,7.84
2019-05-07T02:33:03.815Z,7.87
2019-05-07T02:35:33.652Z,7.88
2019-05-07T02:38:04.614Z,7.95
2019-05-07T02:40:53.600Z,7.94
2019-05-07T02:43:22.983Z,7.95
2019-05-07T02:45:56.632Z,7.93
2019-05-07T02:48:27.430Z,7.97
2019-05-07T02:51:03.890Z,8.06
2019-05-07T02:53:33.932Z,8.08
2019-05-07T02:56:04.527Z,8.14
2019-05-07T02:58:33.370Z,8.20
2019-05-07T03:01:04.789Z,8.22
2019-05-07T03:03:33.832Z,8.27
2019-05-07T03:06:03.252Z,8.32
2019-05-07T03:08:33.335Z,8.37
2019-05-07T03:11:03.353Z,8.35
2019-05-07T03:13:33.765Z,8.30
2019-05-07T03:16:03.863Z,8.23
2019-05-07T03:18:33.689Z,8.19
2019-05-07T03:21:04.628Z,8.21
2019-05-07T03:23:53.897Z,8.22
2019-05-07T03:26:26.672Z,8.21
2019-05-07T03:28:57.503Z,8.18
2019-05-07T03:31:36.024Z,8.13
2019-05-07T03:34:16.688Z,8.11
2019-05-07T03:36:48.952Z,8.06
2019-05-07T03:39:18.527Z,7.98
2019-05-07T03:41:47.695Z,7.87
2019-05-07T03:44:34.649Z,7.87
2019-05-07T03:47:17.463Z,7.78
2019-05-07T03:49:46.881Z,7.72
2019-05-07T03:52:16.631Z,7.69
2019-05-07T03:54:45.873Z,7.67
2019-05-07T03:57:15.991Z,7.55
2019-05-07T03:59:45.353Z,7.53
2019-05-07T04:02:14.538Z,7.55
2019-05-07T04:04:43.707Z,7.51
2019-05-07T04:07:13.878Z,7.55
2019-05-07T04:09:43.922Z,7.53
2019-05-07T04:12:13.476Z,7.55
2019-05-07T04:14:43.385Z,7.45
2019-05-07T04:17:17.236Z,7.56
2019-05-07T04:19:44.136Z,7.66
2019-05-07T04:22:14.059Z,7.70
2019-05-07T04:24:53.738Z,7.72
2019-05-07T04:27:24.549Z,7.73
2019-05-07T04:29:53.923Z,7.79
2019-05-07T04:32:24.725Z,7.82
2019-05-07T04:35:07.447Z,7.87
2019-05-07T04:37:36.592Z,7.91
2019-05-07T04:40:06.565Z,7.96
2019-05-07T04:42:35.779Z,8.00
2019-05-07T04:45:08.737Z,8.01
2019-05-07T04:47:43.152Z,7.93
2019-05-07T04:50:13.898Z,7.84
2019-05-07T04:53:02.610Z,7.86
2019-05-07T04:55:33.197Z,7.85
2019-05-07T04:58:02.989Z,7.94
2019-05-07T05:00:33.743Z,7.92
2019-05-07T05:03:16.474Z,7.91
2019-05-07T05:08:52.163Z,8.14
2019-05-07T05:16:45.264Z,8.32
2019-05-07T05:19:34.033Z,8.41
2019-05-07T05:22:12.784Z,8.50
2019-05-07T05:24:44.622Z,8.49
2019-05-07T05:27:17.154Z,8.63
2019-05-07T05:29:46.592Z,8.77
2019-05-07T05:32:18.552Z,8.86
2019-05-07T05:34:47.812Z,8.92
2019-05-07T05:37:17.094Z,8.91
2019-05-07T05:39:46.398Z,9.04
2019-05-07T05:42:19.895Z,9.21
2019-05-07T05:44:52.442Z,9.31
2019-05-07T05:47:22.164Z,9.39
2019-05-07T05:49:53.404Z,9.47
2019-05-07T05:52:28.196Z,9.53
2019-05-07T05:56:43.617Z,9.59
2019-05-07T05:57:43.117Z,9.45
2019-05-07T06:18:20.864Z,10.14
2019-05-07T06:23:22.566Z,10.37
2019-05-07T06:25:52.472Z,10.21
2019-05-07T06:28:22.502Z,10.20
2019-05-07T06:30:52.729Z,10.18
2019-05-07T06:33:23.165Z,10.19
2019-05-07T06:35:52.612Z,10.22
2019-05-07T06:38:23.985Z,10.21
2019-05-07T06:41:03.635Z,10.30
2019-05-07T06:43:37.400Z,10.33
2019-05-07T06:46:07.286Z,10.31
2019-05-07T06:56:38.219Z,10.43
2019-05-07T06:59:09.076Z,10.48
2019-05-07T07:01:42.196Z,10.58
2019-05-07T07:04:15.076Z,10.72
2019-05-07T07:06:48.734Z,10.74
2019-05-07T07:09:32.948Z,10.72
2019-05-07T07:12:12.943Z,10.69
2019-05-07T07:14:42.527Z,10.80
2019-05-07T07:17:12.936Z,10.94
2019-05-07T07:19:42.825Z,11.03
2019-05-07T07:22:12.953Z,11.20
2019-05-07T07:32:35.740Z,11.62
2019-05-07T07:56:48.874Z,12.51
2019-05-07T08:11:10.086Z,12.84
2019-05-07T08:13:52.897Z,13.13
2019-05-07T08:16:33.826Z,13.17
2019-05-07T08:21:42.031Z,13.56
2019-05-07T08:24:17.465Z,13.54
2019-05-07T08:26:54.866Z,13.61
2019-05-07T08:29:25.982Z,13.57
2019-05-07T08:32:02.390Z,13.67
2019-05-07T08:34:33.924Z,13.78
2019-05-07T08:37:04.980Z,13.86
2019-05-07T08:39:38.402Z,13.70
2019-05-07T08:42:12.302Z,14.04
2019-05-07T08:45:05.654Z,14.26
2019-05-07T08:47:42.537Z,14.38
2019-05-07T08:50:16.201Z,14.48
2019-05-07T08:52:46.727Z,14.21
2019-05-07T08:55:16.431Z,14.25
2019-05-07T08:57:46.619Z,14.25
2019-05-07T09:00:23.702Z,14.21
2019-05-07T09:03:04.019Z,14.43
2019-05-07T09:05:35.928Z,14.76
2019-05-07T09:08:12.607Z,14.60
2019-05-07T09:10:44.792Z,14.78
2019-05-07T09:13:19.125Z,14.63
2019-05-07T09:15:52.852Z,14.94
2019-05-07T09:18:32.186Z,15.24
2019-05-07T09:21:02.743Z,15.20
2019-05-07T09:23:37.920Z,15.18
2019-05-07T09:26:09.900Z,15.34
2019-05-07T09:28:52.356Z,15.33
2019-05-07T09:31:26.243Z,15.47
2019-05-07T09:34:02.647Z,15.50
2019-05-07T09:36:34.987Z,15.56
2019-05-07T09:39:05.837Z,15.14
2019-05-07T09:41:35.351Z,15.35
2019-05-07T09:44:08.307Z,15.32
2019-05-07T09:49:22.282Z,15.16
2019-05-07T09:51:52.030Z,14.84
2019-05-07T09:54:23.095Z,14.80
2019-05-07T09:56:52.739Z,14.73
2019-05-07T10:01:58.273Z,15.56
2019-05-07T10:16:58.414Z,16.03
2019-05-07T10:19:28.033Z,15.77
2019-05-07T10:22:02.308Z,15.96
2019-05-07T11:14:32.149Z,16.67
2019-05-07T11:17:03.112Z,16.67
2019-05-07T11:19:32.512Z,16.89
2019-05-07T11:22:02.034Z,16.91
2019-05-07T11:24:32.102Z,17.00
2019-05-07T11:27:02.422Z,16.40
2019-05-07T11:29:33.072Z,16.26
2019-05-07T11:32:02.874Z,16.00
2019-05-07T11:34:33.678Z,15.94
2019-05-07T11:37:03.220Z,15.74
2019-05-07T11:45:27.322Z,15.38
2019-05-07T11:47:56.865Z,15.06
2019-05-07T11:50:32.852Z,15.24
2019-05-07T11:53:06.292Z,15.36
2019-05-07T11:58:28.194Z,15.25
2019-05-07T12:01:03.995Z,15.38
2019-05-07T12:03:33.595Z,15.84
2019-05-07T12:14:02.828Z,16.31
2019-05-07T12:16:32.951Z,15.90
2019-05-07T12:58:56.918Z,16.08
2019-05-07T13:01:36.671Z,16.08
2019-05-07T13:04:07.992Z,16.01
2019-05-07T13:09:16.342Z,15.77
2019-05-07T14:17:27.009Z,20.38
2019-05-07T14:19:56.271Z,20.87
2019-05-07T14:22:25.467Z,20.85
2019-05-07T14:24:54.712Z,20.30
2019-05-07T14:27:23.964Z,20.82
2019-05-07T14:29:53.152Z,21.61
2019-05-07T14:32:29.944Z,21.92
2019-05-07T14:35:06.493Z,21.21
2019-05-07T14:37:41.858Z,20.53
2019-05-07T14:40:12.892Z,20.12
2019-05-07T14:42:46.451Z,19.96
2019-05-07T14:45:15.726Z,19.85
2019-05-07T14:47:45.111Z,19.60
2019-05-07T14:50:14.412Z,19.36
2019-05-07T14:52:43.916Z,19.43
2019-05-07T14:55:13.145Z,19.45
2019-05-07T14:57:42.584Z,19.18
2019-05-07T15:00:12.382Z,18.44
2019-05-07T15:02:42.113Z,18.79
2019-05-07T15:05:12.157Z,18.60
2019-05-07T15:07:41.592Z,18.85
2019-05-07T15:10:10.951Z,19.32
2019-05-07T15:12:40.175Z,19.41
2019-05-07T15:15:09.623Z,18.86
2019-05-07T15:17:41.950Z,18.67
2019-05-07T15:20:11.243Z,18.55
2019-05-07T15:22:52.695Z,18.42
2019-05-07T15:25:22.674Z,18.08
2019-05-07T15:27:52.737Z,17.69
2019-05-07T15:30:23.170Z,17.53
2019-05-07T15:32:52.395Z,17.45
2019-05-07T15:35:21.622Z,17.42
2019-05-07T15:37:51.798Z,17.68
2019-05-07T15:40:22.534Z,17.81
2019-05-07T15:42:52.482Z,18.00
2019-05-07T15:45:21.871Z,18.86
2019-05-07T15:47:52.743Z,19.51
2019-05-07T15:50:23.558Z,20.12
2019-05-07T15:52:58.780Z,20.68
2019-05-07T15:55:28.127Z,19.94
2019-05-07T15:57:58.089Z,20.49
2019-05-07T16:00:33.523Z,20.64
2019-05-07T16:03:12.078Z,20.44
2019-05-07T16:05:42.464Z,19.48
2019-05-07T16:08:13.724Z,19.43
2019-05-07T16:10:42.924Z,19.37
2019-05-07T16:13:13.882Z,18.86
2019-05-07T16:15:43.147Z,18.97
2019-05-07T16:18:23.854Z,19.03
2019-05-07T16:20:53.313Z,18.96
2019-05-07T16:23:22.534Z,18.86
2019-05-07T16:25:52.782Z,18.63
2019-05-07T16:28:22.086Z,18.50
2019-05-07T16:30:52.161Z,18.43
2019-05-07T16:33:21.428Z,18.05
2019-05-07T16:35:50.604Z,17.81
2019-05-07T16:38:21.990Z,17.81
2019-05-07T16:40:52.184Z,17.63
2019-05-07T16:43:22.366Z,17.39
2019-05-07T16:45:51.832Z,17.26
2019-05-07T16:48:23.085Z,17.14
2019-05-07T16:50:52.352Z,16.97
2019-05-07T16:53:29.322Z,16.95
2019-05-07T16:55:52.452Z,16.90
2019-05-07T16:58:26.436Z,16.88
2019-05-07T17:01:03.240Z,16.63
2019-05-07T17:03:42.590Z,16.54
2019-05-07T17:06:12.449Z,16.53
2019-05-07T17:08:51.705Z,16.16
2019-05-07T17:11:22.645Z,16.02
2019-05-07T17:13:52.042Z,15.84
2019-05-07T17:16:22.841Z,15.83
2019-05-07T17:18:52.124Z,15.72
2019-05-07T17:21:21.868Z,15.83
2019-05-07T17:23:51.929Z,15.91
2019-05-07T17:26:23.043Z,15.98
2019-05-07T17:28:52.211Z,16.03
2019-05-07T17:31:22.931Z,15.92
2019-05-07T17:33:52.286Z,15.83
2019-05-07T17:36:22.452Z,15.71
2019-05-07T17:38:52.006Z,15.71
2019-05-07T17:41:26.535Z,15.76
2019-05-07T17:43:52.272Z,15.74
2019-05-07T17:46:21.825Z,15.71
2019-05-07T17:48:52.360Z,15.60
2019-05-07T17:51:38.441Z,15.38
2019-05-07T17:54:07.649Z,15.38
2019-05-07T17:56:37.622Z,15.38
2019-05-07T17:59:06.800Z,15.39
2019-05-07T18:01:50.029Z,15.37
2019-05-07T18:04:17.852Z,15.30
2019-05-07T18:06:47.147Z,15.25
2019-05-07T18:09:16.474Z,15.19
2019-05-07T18:11:45.726Z,15.16
2019-05-07T18:14:14.919Z,15.10
2019-05-07T18:16:57.849Z,15.00
2019-05-07T18:19:28.668Z,14.88
2019-05-07T18:21:57.835Z,14.89
2019-05-07T18:24:27.053Z,14.84
2019-05-07T18:26:56.288Z,14.72
2019-05-07T18:29:25.480Z,14.64
2019-05-07T18:31:59.337Z,14.52
2019-05-07T18:34:28.602Z,14.53
2019-05-07T18:36:58.361Z,14.48
2019-05-07T18:39:27.537Z,14.38
2019-05-07T18:41:56.729Z,14.35
2019-05-07T18:44:25.921Z,14.32
2019-05-07T18:46:55.120Z,14.24
2019-05-07T18:49:24.316Z,14.17
2019-05-07T18:51:53.475Z,14.06
2019-05-07T18:54:30.450Z,14.02
2019-05-07T18:56:53.850Z,13.95
2019-05-07T18:59:24.797Z,13.90
2019-05-07T19:01:54.074Z,13.86
2019-05-07T19:04:23.280Z,13.79
2019-05-07T19:06:52.511Z,13.70
2019-05-07T19:09:22.528Z,13.61
2019-05-07T19:11:52.396Z,13.55
2019-05-07T19:14:22.640Z,13.50
2019-05-07T19:16:52.677Z,13.46
2019-05-07T19:19:22.417Z,13.37
2019-05-07T19:21:53.050Z,13.32
2019-05-07T19:24:26.011Z,13.25
2019-05-07T19:26:53.431Z,13.25
2019-05-07T19:29:23.369Z,13.18
2019-05-07T19:31:52.883Z,13.16
2019-05-07T19:34:22.402Z,13.15
2019-05-07T19:36:52.161Z,13.12
2019-05-07T19:39:23.387Z,13.03
2019-05-07T19:41:52.732Z,13.03
2019-05-07T19:44:21.953Z,12.93
2019-05-07T19:46:52.495Z,12.88
2019-05-07T19:49:21.139Z,12.87
2019-05-07T19:51:52.309Z,12.87
2019-05-07T19:54:22.788Z,12.84
2019-05-07T19:56:52.134Z,12.84
2019-05-07T19:59:22.266Z,12.81
2019-05-07T20:01:53.799Z,12.75
2019-05-07T20:04:24.779Z,12.72
2019-05-07T20:06:53.983Z,12.67
2019-05-07T20:09:24.823Z,12.63
2019-05-07T20:11:54.057Z,12.60
2019-05-07T20:14:23.299Z,12.53
2019-05-07T20:16:53.182Z,12.50
2019-05-07T20:19:23.070Z,12.46
2019-05-07T20:21:52.497Z,12.39
2019-05-07T20:24:22.088Z,12.31
2019-05-07T20:26:52.684Z,12.24
2019-05-07T20:29:22.918Z,12.19
2019-05-07T20:31:53.254Z,12.14
2019-05-07T20:34:22.728Z,12.06
2019-05-07T20:36:51.967Z,12.04
2019-05-07T20:39:23.202Z,11.99
2019-05-07T20:41:52.679Z,11.93
2019-05-07T20:44:22.016Z,11.88
2019-05-07T20:46:53.420Z,11.91
2019-05-07T20:49:22.598Z,11.85
2019-05-07T20:51:52.607Z,11.78
2019-05-07T20:54:23.554Z,11.78
2019-05-07T20:56:57.150Z,11.76
2019-05-07T20:59:26.301Z,11.74
2019-05-07T21:01:55.691Z,11.73
2019-05-07T21:04:24.908Z,11.70
2019-05-07T21:06:54.105Z,11.63
2019-05-07T21:09:23.281Z,11.69
2019-05-07T21:11:52.565Z,11.72
2019-05-07T21:14:22.824Z,11.72
2019-05-07T21:16:52.168Z,11.73
2019-05-07T21:19:22.314Z,11.70
2019-05-07T21:21:51.683Z,11.68
2019-05-07T21:24:22.554Z,11.70
2019-05-07T21:26:53.097Z,11.72
2019-05-07T21:29:22.125Z,11.69
2019-05-07T21:31:52.460Z,11.66
2019-05-07T21:34:22.984Z,11.62
2019-05-07T21:36:52.506Z,11.62
2019-05-07T21:39:22.361Z,11.61
2019-05-07T21:41:52.028Z,11.56
2019-05-07T21:44:22.731Z,11.48
2019-05-07T21:46:52.270Z,11.50
2019-05-07T21:49:22.840Z,11.49
2019-05-07T21:51:52.279Z,11.45
2019-05-07T21:54:32.984Z,11.45
2019-05-07T21:57:03.840Z,11.41
2019-05-07T21:59:35.746Z,11.36
2019-05-07T22:02:21.932Z,11.38
2019-05-07T22:04:52.770Z,11.32
2019-05-07T22:07:22.777Z,11.29
2019-05-07T22:09:52.350Z,11.23
2019-05-07T22:12:23.176Z,11.19
2019-05-07T22:14:52.652Z,11.15
2019-05-07T22:17:22.037Z,11.19
2019-05-07T22:19:52.508Z,11.16
2019-05-07T22:22:23.962Z,11.21
2019-05-07T22:24:53.102Z,11.16
2019-05-07T22:27:22.457Z,11.11
2019-05-07T22:29:52.721Z,11.14
2019-05-07T22:32:38.747Z,11.16
2019-05-07T22:35:18.703Z,11.11
2019-05-07T22:37:48.021Z,11.09
2019-05-07T22:40:17.199Z,11.11
2019-05-07T22:42:46.382Z,11.07
2019-05-07T22:45:15.609Z,11.04
2019-05-07T22:47:44.939Z,11.03
2019-05-07T22:50:14.121Z,11.06
2019-05-07T22:52:43.358Z,11.01
2019-05-07T22:55:14.172Z,10.98
2019-05-07T22:57:52.536Z,10.94
2019-05-07T23:00:23.527Z,10.94
2019-05-07T23:02:53.916Z,10.94
2019-05-07T23:05:23.269Z,10.91
2019-05-07T23:07:52.777Z,10.88
2019-05-07T23:10:22.611Z,10.88
2019-05-07T23:12:51.868Z,10.90
2019-05-07T23:15:22.616Z,10.91
2019-05-07T23:17:51.883Z,10.92
2019-05-07T23:20:24.145Z,10.91
2019-05-07T23:22:52.102Z,10.93
2019-05-07T23:25:24.262Z,10.95
2019-05-07T23:27:52.577Z,10.88
2019-05-07T23:30:22.411Z,10.83
2019-05-07T23:32:52.831Z,10.80
2019-05-07T23:35:22.295Z,10.85
2019-05-07T23:37:52.952Z,10.83
2019-05-07T23:40:32.461Z,10.79
2019-05-07T23:43:03.522Z,10.87
2019-05-07T23:45:32.779Z,10.88
2019-05-07T23:48:02.777Z,10.85
2019-05-07T23:50:32.434Z,10.81
2019-05-07T23:53:02.244Z,10.76
2019-05-07T23:55:31.907Z,10.79
2019-05-07T23:58:03.071Z,10.80
